createdAt,value
2018-04-18T00:00:30.313Z,48.30
2018-04-18T00:01:05.869Z,39.50
2018-04-18T00:01:41.260Z,42.30
2018-04-18T00:02:17.698Z,42.80
2018-04-18T00:02:52.698Z,41.90
2018-04-18T00:03:28.006Z,35.80
2018-04-18T00:04:03.592Z,37.10
2018-04-18T00:04:39.663Z,35.40
2018-04-18T00:05:15.723Z,33.90
2018-04-18T00:05:52.220Z,42.50
2018-04-18T00:06:27.296Z,41.70
2018-04-18T00:07:02.613Z,39.00
2018-04-18T00:07:37.889Z,40.10
2018-04-18T00:08:13.203Z,41.60
2018-04-18T00:08:49.115Z,42.10
2018-04-18T00:09:24.724Z,44.40
2018-04-18T00:10:00.224Z,42.80
2018-04-18T00:10:35.861Z,42.90
2018-04-18T00:11:12.613Z,42.80
2018-04-18T00:11:48.352Z,44.40
2018-04-18T00:12:23.930Z,41.30
2018-04-18T00:12:59.564Z,39.40
2018-04-18T00:13:34.648Z,41.40
2018-04-18T00:14:09.559Z,44.40
2018-04-18T00:14:44.746Z,50.60
2018-04-18T00:15:20.387Z,46.80
2018-04-18T00:15:56.566Z,50.50
2018-04-18T00:16:32.083Z,47.30
2018-04-18T00:17:07.883Z,41.20
2018-04-18T00:17:44.191Z,40.70
2018-04-18T00:18:19.786Z,47.20
2018-04-18T00:18:55.440Z,46.40
2018-04-18T00:19:30.825Z,44.50
2018-04-18T00:20:06.036Z,42.60
2018-04-18T00:20:43.559Z,44.30
2018-04-18T00:21:19.184Z,51.50
2018-04-18T00:21:54.934Z,50.10
2018-04-18T00:22:30.458Z,49.00
2018-04-18T00:23:05.959Z,45.60
2018-04-18T00:23:41.692Z,45.70
2018-04-18T00:24:17.164Z,49.10
2018-04-18T00:24:52.570Z,50.80
2018-04-18T00:25:28.200Z,45.20
2018-04-18T00:26:03.539Z,49.30
2018-04-18T00:26:39.516Z,48.10
2018-04-18T00:27:15.018Z,46.30
2018-04-18T00:27:50.394Z,47.80
2018-04-18T00:28:25.599Z,50.90
2018-04-18T00:29:00.782Z,47.80
2018-04-18T00:29:36.104Z,50.70
2018-04-18T00:30:11.714Z,57.10
2018-04-18T00:30:46.929Z,52.00
2018-04-18T00:31:22.280Z,51.30
2018-04-18T00:31:57.501Z,51.40
2018-04-18T00:32:32.720Z,47.70
2018-04-18T00:33:08.154Z,51.80
2018-04-18T00:33:45.388Z,51.40
2018-04-18T00:34:20.727Z,51.40
2018-04-18T00:34:56.260Z,46.80
2018-04-18T00:35:31.381Z,42.10
2018-04-18T00:36:07.088Z,41.10
2018-04-18T00:36:42.437Z,39.20
2018-04-18T00:37:17.974Z,42.00
2018-04-18T00:37:53.211Z,49.70
2018-04-18T00:38:28.314Z,53.20
2018-04-18T00:39:03.852Z,50.50
2018-04-18T00:39:39.536Z,49.10
2018-04-18T00:40:14.671Z,50.60
2018-04-18T00:40:49.757Z,55.50
2018-04-18T00:41:25.409Z,58.50
2018-04-18T00:42:00.881Z,50.70
2018-04-18T00:42:36.921Z,48.40
2018-04-18T00:43:12.029Z,50.80
2018-04-18T00:43:47.475Z,44.20
2018-04-18T00:44:22.961Z,45.70
2018-04-18T00:44:58.193Z,43.80
2018-04-18T00:45:33.590Z,44.30
2018-04-18T00:46:09.093Z,44.40
2018-04-18T00:46:44.340Z,46.60
2018-04-18T00:47:19.575Z,41.20
2018-04-18T00:47:54.969Z,40.70
2018-04-18T00:48:30.199Z,42.00
2018-04-18T00:49:05.409Z,47.10
2018-04-18T00:49:40.766Z,47.30
2018-04-18T00:50:16.035Z,48.60
2018-04-18T00:50:54.153Z,43.50
2018-04-18T00:51:29.248Z,42.70
2018-04-18T00:52:04.738Z,40.70
2018-04-18T00:52:40.341Z,43.60
2018-04-18T00:53:15.790Z,48.80
2018-04-18T00:53:51.090Z,45.40
2018-04-18T00:54:26.314Z,44.10
2018-04-18T00:55:01.707Z,48.10
2018-04-18T00:55:37.534Z,46.90
2018-04-18T00:56:12.819Z,45.20
2018-04-18T00:56:48.284Z,40.80
2018-04-18T00:57:23.824Z,42.70
2018-04-18T00:57:59.245Z,44.60
2018-04-18T00:58:34.836Z,40.10
2018-04-18T00:59:10.191Z,40.10
2018-04-18T00:59:45.794Z,45.60
2018-04-18T01:00:21.227Z,47.30
2018-04-18T01:00:56.635Z,43.70
2018-04-18T01:01:32.307Z,40.80
2018-04-18T01:02:07.915Z,44.10
2018-04-18T01:02:43.162Z,50.60
2018-04-18T01:03:18.377Z,47.60
2018-04-18T01:03:54.025Z,46.00
2018-04-18T01:04:29.007Z,46.10
2018-04-18T01:05:04.419Z,50.10
2018-04-18T01:05:41.016Z,50.40
2018-04-18T01:06:16.342Z,49.40
2018-04-18T01:06:51.760Z,49.60
2018-04-18T01:07:27.187Z,46.20
2018-04-18T01:08:02.496Z,46.80
2018-04-18T01:08:37.915Z,49.30
2018-04-18T01:09:13.245Z,50.00
2018-04-18T01:09:48.585Z,47.00
2018-04-18T01:10:23.792Z,45.10
2018-04-18T01:11:02.401Z,41.90
2018-04-18T01:11:37.909Z,45.20
2018-04-18T01:12:13.134Z,54.40
2018-04-18T01:12:48.425Z,56.30
2018-04-18T01:13:23.881Z,48.20
2018-04-18T01:13:58.983Z,45.90
2018-04-18T01:14:34.619Z,50.00
2018-04-18T01:15:09.927Z,52.40
2018-04-18T01:15:45.468Z,52.10
2018-04-18T01:16:20.759Z,48.00
2018-04-18T01:16:56.200Z,49.10
2018-04-18T01:17:31.301Z,53.50
2018-04-18T01:18:06.447Z,43.80
2018-04-18T01:18:42.168Z,49.10
2018-04-18T01:19:17.880Z,54.30
2018-04-18T01:19:52.974Z,48.50
2018-04-18T01:20:28.416Z,47.30
2018-04-18T01:21:03.913Z,51.30
2018-04-18T01:21:39.747Z,50.90
2018-04-18T01:22:15.237Z,48.40
2018-04-18T01:22:50.591Z,46.50
2018-04-18T01:23:26.266Z,47.90
2018-04-18T01:24:01.843Z,53.70
2018-04-18T01:24:36.954Z,50.40
2018-04-18T01:25:12.472Z,51.00
2018-04-18T01:25:47.904Z,47.40
2018-04-18T01:26:23.252Z,48.50
2018-04-18T01:26:58.254Z,50.40
2018-04-18T01:27:33.485Z,51.60
2018-04-18T01:28:08.995Z,49.80
2018-04-18T01:28:44.843Z,51.50
2018-04-18T01:29:19.983Z,46.10
2018-04-18T01:29:55.618Z,47.20
2018-04-18T01:30:31.119Z,47.60
2018-04-18T01:31:06.666Z,49.80
2018-04-18T01:31:42.364Z,48.70
2018-04-18T01:32:17.691Z,47.50
2018-04-18T01:32:53.118Z,57.10
2018-04-18T01:33:28.428Z,50.70
2018-04-18T01:34:03.815Z,58.30
2018-04-18T01:34:39.566Z,57.80
2018-04-18T01:35:15.181Z,51.20
2018-04-18T01:35:50.314Z,47.00
2018-04-18T01:36:25.822Z,40.80
2018-04-18T01:37:01.284Z,44.70
2018-04-18T01:37:36.793Z,49.50
2018-04-18T01:38:12.114Z,47.60
2018-04-18T01:38:47.422Z,47.30
2018-04-18T01:39:22.856Z,47.30
2018-04-18T01:39:58.067Z,45.20
2018-04-18T01:40:33.627Z,47.90
2018-04-18T01:41:08.929Z,48.50
2018-04-18T01:41:44.463Z,49.70
2018-04-18T01:42:19.778Z,50.80
2018-04-18T01:42:54.995Z,53.90
2018-04-18T01:43:30.400Z,51.40
2018-04-18T01:44:05.702Z,48.00
2018-04-18T01:44:41.429Z,50.30
2018-04-18T01:45:16.801Z,54.10
2018-04-18T01:45:53.010Z,55.40
2018-04-18T01:46:28.133Z,48.60
2018-04-18T01:47:03.728Z,52.30
2018-04-18T01:47:39.039Z,50.60
2018-04-18T01:48:14.321Z,49.30
2018-04-18T01:48:49.563Z,55.20
2018-04-18T01:49:24.680Z,51.50
2018-04-18T01:50:00.283Z,48.40
2018-04-18T01:50:36.537Z,53.60
2018-04-18T01:51:13.201Z,52.20
2018-04-18T01:51:48.488Z,53.00
2018-04-18T01:52:24.096Z,51.80
2018-04-18T01:52:59.393Z,52.80
2018-04-18T01:53:35.122Z,53.30
2018-04-18T01:54:10.605Z,50.70
2018-04-18T01:54:46.048Z,53.20
2018-04-18T01:55:21.257Z,47.50
2018-04-18T01:55:56.715Z,50.20
2018-04-18T01:56:31.811Z,53.10
2018-04-18T01:57:07.022Z,56.30
2018-04-18T01:57:42.721Z,53.20
2018-04-18T01:58:18.263Z,58.40
2018-04-18T01:58:53.561Z,54.80
2018-04-18T01:59:29.286Z,46.30
2018-04-18T02:00:04.587Z,44.50
2018-04-18T02:00:41.423Z,43.80
2018-04-18T02:01:19.148Z,48.70
2018-04-18T02:01:54.686Z,49.70
2018-04-18T02:02:29.769Z,45.50
2018-04-18T02:03:05.012Z,49.20
2018-04-18T02:03:40.511Z,52.40
2018-04-18T02:04:15.948Z,55.00
2018-04-18T02:04:52.241Z,50.70
2018-04-18T02:05:29.808Z,55.30
2018-04-18T02:06:10.469Z,61.00
2018-04-18T02:06:45.776Z,55.80
2018-04-18T02:10:00.222Z,62.10
2018-04-18T02:10:36.028Z,59.80
2018-04-18T02:11:11.437Z,52.10
2018-04-18T02:11:46.815Z,55.40
2018-04-18T02:12:22.088Z,58.30
2018-04-18T02:12:57.701Z,59.20
2018-04-18T02:13:32.965Z,54.00
2018-04-18T02:14:08.357Z,57.90
2018-04-18T02:14:43.561Z,61.40
2018-04-18T02:15:18.640Z,57.20
2018-04-18T02:15:54.029Z,55.90
2018-04-18T02:16:29.631Z,58.90
2018-04-18T02:17:04.830Z,61.30
2018-04-18T02:17:40.667Z,58.00
2018-04-18T02:18:16.078Z,61.00
2018-04-18T02:18:51.880Z,61.60
2018-04-18T02:19:27.147Z,55.40
2018-04-18T02:20:02.645Z,56.60
2018-04-18T02:20:39.842Z,57.40
2018-04-18T02:21:15.741Z,56.50
2018-04-18T02:21:51.186Z,54.10
2018-04-18T02:22:26.691Z,53.90
2018-04-18T02:23:01.907Z,57.70
2018-04-18T02:23:37.290Z,61.30
2018-04-18T02:24:12.771Z,56.60
2018-04-18T02:24:48.270Z,53.00
2018-04-18T02:25:23.345Z,53.50
2018-04-18T02:25:58.656Z,56.70
2018-04-18T02:26:34.180Z,56.10
2018-04-18T02:27:09.420Z,58.10
2018-04-18T02:27:45.021Z,50.80
2018-04-18T02:28:20.691Z,49.70
2018-04-18T02:28:56.397Z,53.90
2018-04-18T02:29:32.022Z,54.40
2018-04-18T02:30:07.362Z,61.60
2018-04-18T02:30:42.751Z,62.90
2018-04-18T02:31:18.162Z,61.90
2018-04-18T02:31:53.515Z,63.10
2018-04-18T02:32:28.812Z,60.20
2018-04-18T02:33:04.109Z,60.20
2018-04-18T02:33:39.602Z,58.80
2018-04-18T02:34:14.796Z,61.20
2018-04-18T02:34:50.107Z,63.20
2018-04-18T02:35:25.681Z,56.90
2018-04-18T02:36:01.199Z,53.60
2018-04-18T02:36:36.785Z,53.20
2018-04-18T02:37:12.075Z,58.10
2018-04-18T02:37:47.523Z,62.00
2018-04-18T02:38:22.808Z,60.10
2018-04-18T02:38:58.696Z,58.60
2018-04-18T02:39:35.495Z,60.70
2018-04-18T02:40:11.131Z,62.20
2018-04-18T02:40:47.049Z,55.90
2018-04-18T02:41:23.440Z,59.90
2018-04-18T02:41:58.841Z,68.30
2018-04-18T02:42:34.111Z,61.60
2018-04-18T02:43:09.535Z,62.80
2018-04-18T02:43:47.325Z,69.00
2018-04-18T02:44:22.735Z,58.00
2018-04-18T02:44:58.128Z,60.00
2018-04-18T02:45:33.505Z,67.20
2018-04-18T02:46:08.909Z,59.70
2018-04-18T02:46:44.331Z,59.60
2018-04-18T02:47:19.600Z,60.40
2018-04-18T02:47:54.987Z,61.00
2018-04-18T02:48:30.409Z,57.60
2018-04-18T02:49:06.013Z,57.30
2018-04-18T02:49:41.092Z,66.10
2018-04-18T02:50:16.699Z,66.30
2018-04-18T02:50:52.114Z,61.20
2018-04-18T02:51:27.597Z,60.70
2018-04-18T02:52:03.115Z,74.40
2018-04-18T02:52:39.102Z,68.00
2018-04-18T02:53:14.300Z,63.20
2018-04-18T02:53:49.537Z,64.40
2018-04-18T02:54:25.002Z,72.30
2018-04-18T02:55:00.510Z,66.50
2018-04-18T02:55:37.014Z,70.30
2018-04-18T02:56:12.337Z,69.10
2018-04-18T02:56:48.755Z,63.50
2018-04-18T02:57:24.025Z,63.90
2018-04-18T02:57:59.153Z,61.10
2018-04-18T02:58:34.852Z,63.40
2018-04-18T02:59:10.408Z,65.00
2018-04-18T02:59:45.824Z,67.50
2018-04-18T03:00:21.418Z,67.70
2018-04-18T03:00:56.731Z,64.30
2018-04-18T03:01:32.103Z,63.90
2018-04-18T03:02:07.546Z,66.20
2018-04-18T03:02:42.815Z,62.00
2018-04-18T03:03:18.730Z,61.30
2018-04-18T03:03:53.752Z,65.00
2018-04-18T03:04:28.982Z,66.50
2018-04-18T03:05:04.303Z,65.80
2018-04-18T03:05:39.589Z,66.70
2018-04-18T03:06:15.099Z,68.40
2018-04-18T03:06:51.914Z,70.70
2018-04-18T03:07:27.137Z,65.00
2018-04-18T03:08:02.550Z,66.10
2018-04-18T03:08:37.750Z,64.60
2018-04-18T03:09:13.156Z,63.80
2018-04-18T03:09:48.609Z,70.50
2018-04-18T03:10:23.924Z,69.50
2018-04-18T03:11:00.668Z,60.80
2018-04-18T03:11:36.152Z,59.40
2018-04-18T03:12:11.756Z,60.50
2018-04-18T03:12:47.033Z,61.10
2018-04-18T03:13:22.347Z,64.10
2018-04-18T03:13:57.719Z,60.40
2018-04-18T03:14:33.330Z,64.30
2018-04-18T03:15:08.685Z,64.50
2018-04-18T03:15:44.573Z,64.60
2018-04-18T03:16:19.865Z,66.30
2018-04-18T03:16:55.845Z,68.60
2018-04-18T03:17:31.134Z,67.40
2018-04-18T03:18:06.296Z,62.40
2018-04-18T03:18:41.576Z,62.00
2018-04-18T03:19:16.976Z,65.40
2018-04-18T03:19:52.278Z,71.50
2018-04-18T03:20:27.518Z,69.50
2018-04-18T03:21:02.595Z,66.60
2018-04-18T03:21:37.997Z,72.90
2018-04-18T03:22:13.419Z,68.00
2018-04-18T03:22:48.710Z,67.90
2018-04-18T03:23:24.113Z,64.00
2018-04-18T03:23:59.603Z,72.00
2018-04-18T03:24:34.614Z,66.80
2018-04-18T03:25:13.355Z,70.70
2018-04-18T03:25:48.764Z,71.40
2018-04-18T03:26:24.165Z,71.70
2018-04-18T03:26:59.466Z,70.90
2018-04-18T03:27:34.684Z,75.30
2018-04-18T03:28:09.790Z,79.80
2018-04-18T03:28:47.081Z,69.10
2018-04-18T03:29:22.283Z,61.60
2018-04-18T03:29:57.669Z,72.40
2018-04-18T03:30:33.087Z,71.90
2018-04-18T03:31:10.035Z,68.40
2018-04-18T03:31:45.416Z,72.70
2018-04-18T03:32:20.727Z,67.40
2018-04-18T03:32:55.913Z,69.70
2018-04-18T03:33:31.223Z,76.60
2018-04-18T03:34:09.040Z,73.50
2018-04-18T03:34:44.135Z,68.50
2018-04-18T03:35:19.461Z,70.40
2018-04-18T03:35:58.005Z,71.40
2018-04-18T03:36:35.503Z,67.90
2018-04-18T03:37:10.708Z,73.00
2018-04-18T03:37:46.167Z,78.10
2018-04-18T03:38:24.001Z,76.70
2018-04-18T03:38:59.264Z,80.10
2018-04-18T03:39:35.289Z,72.50
2018-04-18T03:40:10.725Z,68.40
2018-04-18T03:40:47.044Z,68.30
2018-04-18T03:41:22.234Z,74.80
2018-04-18T03:41:57.460Z,78.40
2018-04-18T03:42:32.984Z,80.30
2018-04-18T03:43:08.400Z,79.20
2018-04-18T03:43:43.810Z,77.00
2018-04-18T03:44:19.099Z,68.60
2018-04-18T03:44:54.368Z,65.00
2018-04-18T03:45:31.677Z,71.10
2018-04-18T03:46:07.174Z,73.60
2018-04-18T03:46:42.877Z,67.40
2018-04-18T03:47:19.000Z,71.60
2018-04-18T03:47:55.973Z,71.30
2018-04-18T03:48:31.386Z,72.40
2018-04-18T03:49:06.788Z,66.30
2018-04-18T03:49:42.168Z,68.00
2018-04-18T03:50:17.674Z,68.10
2018-04-18T03:50:53.148Z,67.20
2018-04-18T03:51:28.761Z,69.90
2018-04-18T03:52:04.573Z,69.40
2018-04-18T03:52:39.975Z,74.60
2018-04-18T03:53:16.866Z,73.10
2018-04-18T03:53:52.188Z,79.70
2018-04-18T03:54:27.404Z,76.60
2018-04-18T03:55:02.806Z,71.60
2018-04-18T03:55:38.016Z,70.10
2018-04-18T03:56:16.534Z,81.30
2018-04-18T03:56:51.725Z,83.80
2018-04-18T03:57:27.070Z,79.80
2018-04-18T03:58:02.553Z,77.30
2018-04-18T03:58:40.868Z,76.30
2018-04-18T03:59:16.355Z,80.50
2018-04-18T03:59:51.851Z,75.80
2018-04-18T04:00:27.199Z,73.50
2018-04-18T04:01:02.366Z,77.70
2018-04-18T04:01:37.489Z,78.60
2018-04-18T04:02:13.900Z,75.90
2018-04-18T04:02:51.695Z,77.80
2018-04-18T04:03:27.549Z,72.20
2018-04-18T04:04:02.735Z,73.90
2018-04-18T04:04:38.741Z,73.50
2018-04-18T04:05:14.141Z,76.40
2018-04-18T04:05:49.546Z,83.30
2018-04-18T04:06:24.856Z,77.30
2018-04-18T04:07:00.032Z,72.10
2018-04-18T04:07:35.736Z,73.90
2018-04-18T04:08:11.124Z,80.10
2018-04-18T04:08:46.354Z,72.40
2018-04-18T04:09:21.623Z,70.80
2018-04-18T04:09:56.926Z,71.00
2018-04-18T04:10:32.360Z,77.50
2018-04-18T04:11:10.026Z,69.60
2018-04-18T04:11:45.243Z,62.70
2018-04-18T04:12:20.922Z,62.90
2018-04-18T04:12:58.326Z,63.00
2018-04-18T04:13:33.751Z,64.90
2018-04-18T04:14:09.069Z,73.60
2018-04-18T04:14:44.275Z,69.00
2018-04-18T04:15:19.669Z,74.00
2018-04-18T04:15:55.159Z,78.90
2018-04-18T04:16:30.525Z,73.30
2018-04-18T04:17:05.484Z,71.40
2018-04-18T04:17:41.308Z,71.30
2018-04-18T04:18:16.692Z,62.90
2018-04-18T04:18:51.893Z,64.10
2018-04-18T04:19:27.342Z,70.40
2018-04-18T04:20:02.619Z,72.60
2018-04-18T04:20:38.839Z,71.10
2018-04-18T04:21:14.117Z,73.50
2018-04-18T04:21:50.007Z,77.10
2018-04-18T04:22:25.428Z,84.10
2018-04-18T04:23:01.007Z,76.50
2018-04-18T04:23:36.348Z,70.40
2018-04-18T04:24:11.616Z,71.80
2018-04-18T04:24:47.000Z,68.70
2018-04-18T04:25:22.383Z,66.10
2018-04-18T04:25:57.678Z,65.10
2018-04-18T04:26:33.005Z,74.30
2018-04-18T04:27:08.395Z,82.10
2018-04-18T04:27:44.403Z,73.40
2018-04-18T04:28:19.869Z,80.70
2018-04-18T04:28:55.353Z,80.60
2018-04-18T04:29:30.756Z,71.40
2018-04-18T04:30:06.198Z,73.70
2018-04-18T04:30:42.305Z,72.80
2018-04-18T04:31:17.704Z,76.00
2018-04-18T04:31:52.804Z,78.80
2018-04-18T04:32:28.296Z,71.50
2018-04-18T04:33:04.877Z,67.50
2018-04-18T04:33:40.095Z,69.10
2018-04-18T04:34:15.680Z,73.20
2018-04-18T04:34:50.677Z,75.20
2018-04-18T04:35:26.111Z,73.20
2018-04-18T04:36:01.491Z,73.20
2018-04-18T04:36:36.799Z,75.10
2018-04-18T04:37:12.193Z,78.20
2018-04-18T04:37:47.619Z,82.70
2018-04-18T04:38:23.015Z,86.90
2018-04-18T04:38:58.616Z,84.70
2018-04-18T04:39:33.861Z,83.30
2018-04-18T04:40:08.930Z,78.10
2018-04-18T04:40:44.363Z,80.50
2018-04-18T04:41:21.743Z,78.20
2018-04-18T04:41:57.256Z,71.00
2018-04-18T04:42:32.686Z,74.00
2018-04-18T04:43:08.058Z,70.10
2018-04-18T04:43:43.473Z,67.60
2018-04-18T04:44:18.875Z,74.00
2018-04-18T04:44:54.217Z,77.20
2018-04-18T04:45:29.370Z,82.00
2018-04-18T04:46:04.771Z,81.50
2018-04-18T04:46:40.173Z,83.10
2018-04-18T04:47:15.454Z,75.50
2018-04-18T04:47:50.557Z,69.40
2018-04-18T04:48:25.948Z,67.70
2018-04-18T04:49:01.230Z,69.60
2018-04-18T04:49:37.540Z,70.90
2018-04-18T04:50:12.729Z,74.60
2018-04-18T04:50:48.133Z,82.50
2018-04-18T04:51:23.667Z,78.40
2018-04-18T04:51:59.094Z,74.10
2018-04-18T04:52:34.806Z,70.80
2018-04-18T04:53:10.086Z,63.60
2018-04-18T04:53:46.833Z,69.10
2018-04-18T04:54:22.224Z,67.30
2018-04-18T04:54:57.716Z,70.60
2018-04-18T04:55:33.022Z,68.90
2018-04-18T04:56:08.406Z,68.90
2018-04-18T04:56:43.638Z,68.40
2018-04-18T04:57:19.044Z,65.20
2018-04-18T04:57:54.332Z,65.50
2018-04-18T04:58:29.823Z,67.70
2018-04-18T04:59:05.029Z,67.10
2018-04-18T04:59:40.235Z,71.10
2018-04-18T05:00:15.533Z,75.20
2018-04-18T05:00:51.159Z,70.10
2018-04-18T05:01:26.830Z,66.40
2018-04-18T05:02:02.381Z,65.60
2018-04-18T05:02:37.527Z,63.50
2018-04-18T05:03:12.986Z,69.40
2018-04-18T05:03:48.193Z,72.20
2018-04-18T05:04:23.373Z,68.80
2018-04-18T05:04:58.590Z,67.60
2018-04-18T05:05:33.797Z,67.80
2018-04-18T05:06:09.209Z,76.50
2018-04-18T05:06:45.642Z,71.70
2018-04-18T05:07:21.089Z,66.70
2018-04-18T05:07:56.690Z,65.30
2018-04-18T05:08:32.389Z,75.00
2018-04-18T05:09:07.820Z,68.40
2018-04-18T05:09:43.184Z,67.70
2018-04-18T05:10:18.547Z,65.60
2018-04-18T05:10:56.327Z,64.60
2018-04-18T05:11:31.645Z,66.40
2018-04-18T05:12:06.965Z,64.50
2018-04-18T05:12:42.600Z,68.40
2018-04-18T05:13:18.084Z,63.10
2018-04-18T05:13:53.507Z,60.20
2018-04-18T05:14:28.599Z,60.30
2018-04-18T05:15:04.447Z,63.20
2018-04-18T05:15:39.761Z,60.30
2018-04-18T05:16:15.052Z,54.90
2018-04-18T05:16:50.365Z,57.50
2018-04-18T05:17:25.560Z,55.10
2018-04-18T05:18:01.105Z,59.50
2018-04-18T05:18:36.891Z,57.00
2018-04-18T05:19:12.261Z,57.00
2018-04-18T05:19:47.680Z,55.10
2018-04-18T05:20:23.068Z,53.10
2018-04-18T05:21:00.682Z,51.20
2018-04-18T05:21:36.200Z,51.80
2018-04-18T05:22:11.384Z,61.40
2018-04-18T05:22:46.724Z,60.20
2018-04-18T05:23:21.739Z,50.30
2018-04-18T05:23:57.938Z,47.20
2018-04-18T05:24:33.024Z,51.10
2018-04-18T05:25:10.129Z,53.90
2018-04-18T05:25:45.640Z,57.90
2018-04-18T05:26:22.838Z,55.80
2018-04-18T05:26:58.173Z,55.90
2018-04-18T05:27:33.803Z,56.40
2018-04-18T05:28:09.159Z,51.50
2018-04-18T05:28:44.623Z,51.50
2018-04-18T05:29:19.900Z,49.10
2018-04-18T05:29:55.712Z,47.20
2018-04-18T05:30:31.009Z,48.90
2018-04-18T05:31:06.329Z,51.20
2018-04-18T05:31:41.771Z,50.60
2018-04-18T05:32:20.371Z,47.30
2018-04-18T05:32:56.293Z,44.20
2018-04-18T05:33:32.103Z,51.50
2018-04-18T05:34:07.346Z,55.70
2018-04-18T05:34:43.169Z,52.00
2018-04-18T05:35:18.543Z,50.80
2018-04-18T05:35:55.311Z,45.40
2018-04-18T05:36:30.731Z,48.30
2018-04-18T05:37:06.160Z,49.00
2018-04-18T05:37:41.586Z,43.30
2018-04-18T05:38:17.384Z,46.30
2018-04-18T05:38:52.811Z,49.30
2018-04-18T05:39:28.747Z,48.40
2018-04-18T05:40:04.361Z,49.70
2018-04-18T05:40:41.166Z,44.40
2018-04-18T05:41:18.041Z,43.60
2018-04-18T05:41:53.360Z,48.20
2018-04-18T05:42:31.626Z,49.10
2018-04-18T05:43:06.846Z,49.80
2018-04-18T05:43:43.017Z,49.70
2018-04-18T05:44:18.234Z,52.20
2018-04-18T05:44:53.774Z,53.30
2018-04-18T05:45:30.452Z,55.20
2018-04-18T05:46:07.360Z,49.80
2018-04-18T05:46:44.166Z,44.60
2018-04-18T05:47:19.597Z,43.50
2018-04-18T05:47:54.831Z,47.10
2018-04-18T05:48:30.031Z,45.70
2018-04-18T05:49:05.856Z,46.70
2018-04-18T05:49:41.051Z,46.90
2018-04-18T05:50:16.884Z,42.40
2018-04-18T05:50:52.275Z,44.30
2018-04-18T05:51:27.882Z,44.90
2018-04-18T05:52:03.414Z,45.50
2018-04-18T05:52:38.600Z,46.60
2018-04-18T05:53:13.816Z,45.40
2018-04-18T05:53:49.147Z,50.20
2018-04-18T05:54:24.237Z,55.20
2018-04-18T05:54:59.851Z,52.10
2018-04-18T05:55:34.960Z,45.90
2018-04-18T05:56:10.194Z,44.70
2018-04-18T05:56:45.729Z,42.80
2018-04-18T05:57:21.013Z,42.30
2018-04-18T05:57:56.426Z,41.50
2018-04-18T05:58:31.830Z,43.50
2018-04-18T05:59:07.357Z,45.80
2018-04-18T05:59:43.569Z,42.40
2018-04-18T06:00:19.075Z,44.90
2018-04-18T06:00:55.115Z,45.20
2018-04-18T06:01:30.302Z,45.80
2018-04-18T06:02:05.703Z,45.80
2018-04-18T06:02:41.320Z,43.40
2018-04-18T06:03:17.029Z,44.60
2018-04-18T06:03:52.538Z,42.80
2018-04-18T06:04:27.964Z,37.30
2018-04-18T06:05:06.363Z,37.90
2018-04-18T06:05:41.555Z,44.10
2018-04-18T06:06:18.466Z,43.70
2018-04-18T06:06:53.751Z,41.40
2018-04-18T06:07:29.251Z,42.20
2018-04-18T06:08:07.590Z,43.30
2018-04-18T06:08:42.590Z,45.20
2018-04-18T06:09:19.498Z,45.70
2018-04-18T06:09:54.895Z,44.10
2018-04-18T06:10:32.482Z,40.10
2018-04-18T06:11:07.825Z,42.50
2018-04-18T06:11:44.057Z,41.30
2018-04-18T06:12:19.370Z,41.80
2018-04-18T06:13:00.279Z,47.20
2018-04-18T06:13:37.363Z,41.70
2018-04-18T06:14:16.076Z,42.50
2018-04-18T06:14:54.131Z,41.80
2018-04-18T06:15:32.718Z,44.10
2018-04-18T06:16:07.931Z,43.30
2018-04-18T06:16:43.047Z,40.70
2018-04-18T06:17:22.067Z,42.90
2018-04-18T06:17:57.386Z,40.90
2018-04-18T06:18:36.377Z,45.60
2018-04-18T06:19:11.620Z,43.10
2018-04-18T06:19:46.928Z,36.70
2018-04-18T06:20:22.335Z,38.30
2018-04-18T06:20:59.775Z,43.50
2018-04-18T06:21:35.242Z,44.20
2018-04-18T06:22:12.246Z,45.10
2018-04-18T06:22:47.798Z,48.00
2018-04-18T06:23:22.988Z,40.60
2018-04-18T06:23:58.444Z,43.40
2018-04-18T06:24:33.778Z,40.40
2018-04-18T06:25:09.093Z,38.50
2018-04-18T06:25:47.620Z,41.00
2018-04-18T06:26:25.697Z,40.10
2018-04-18T06:27:04.751Z,43.80
2018-04-18T06:27:42.247Z,41.00
2018-04-18T06:28:17.612Z,38.10
2018-04-18T06:28:52.938Z,38.60
2018-04-18T06:29:28.444Z,38.20
2018-04-18T06:30:03.858Z,38.40
2018-04-18T06:30:42.260Z,43.30
2018-04-18T06:31:20.061Z,44.40
2018-04-18T06:31:55.775Z,42.70
2018-04-18T06:32:32.962Z,42.60
2018-04-18T06:33:08.173Z,37.30
2018-04-18T06:33:45.993Z,39.10
2018-04-18T06:34:21.327Z,38.90
2018-04-18T06:34:56.848Z,41.70
2018-04-18T06:35:32.370Z,43.10
2018-04-18T06:36:11.299Z,43.10
2018-04-18T06:36:46.471Z,39.30
2018-04-18T06:37:21.893Z,44.20
2018-04-18T06:37:57.396Z,47.10
2018-04-18T06:38:32.843Z,49.60
2018-04-18T06:39:08.208Z,48.80
2018-04-18T06:39:46.542Z,42.60
2018-04-18T06:40:22.598Z,40.00
2018-04-18T06:40:58.091Z,36.50
2018-04-18T06:41:35.191Z,39.20
2018-04-18T06:42:10.907Z,39.90
2018-04-18T06:42:46.505Z,43.00
2018-04-18T06:43:22.127Z,45.80
2018-04-18T06:43:57.222Z,44.30
2018-04-18T06:44:32.873Z,44.40
2018-04-18T06:45:08.329Z,42.80
2018-04-18T06:45:44.049Z,41.20
2018-04-18T06:46:20.900Z,42.60
2018-04-18T06:46:56.212Z,44.20
2018-04-18T06:47:31.492Z,41.00
2018-04-18T06:48:06.915Z,39.80
2018-04-18T06:48:42.313Z,44.80
2018-04-18T06:49:17.617Z,50.00
2018-04-18T06:49:53.435Z,46.00
2018-04-18T06:50:28.754Z,52.70
2018-04-18T06:51:07.271Z,49.60
2018-04-18T06:51:42.477Z,45.30
2018-04-18T06:52:17.796Z,46.30
2018-04-18T06:52:53.700Z,47.50
2018-04-18T06:53:28.836Z,45.80
2018-04-18T06:54:04.276Z,39.00
2018-04-18T06:54:39.568Z,39.70
2018-04-18T06:55:15.003Z,44.10
2018-04-18T06:55:50.207Z,45.40
2018-04-18T06:56:28.514Z,42.10
2018-04-18T06:57:04.755Z,48.70
2018-04-18T06:57:39.893Z,55.20
2018-04-18T06:58:15.222Z,53.80
2018-04-18T06:58:50.823Z,50.20
2018-04-18T06:59:26.328Z,53.10
2018-04-18T07:00:01.823Z,59.30
2018-04-18T07:02:38.302Z,53.80
2018-04-18T07:03:13.869Z,50.80
2018-04-18T07:03:51.988Z,58.80
2018-04-18T07:04:27.085Z,58.90
2018-04-18T07:05:05.504Z,55.10
2018-04-18T07:05:41.633Z,54.90
2018-04-18T07:06:17.317Z,50.90
2018-04-18T07:06:52.621Z,48.20
2018-04-18T07:07:27.964Z,49.20
2018-04-18T07:08:03.735Z,51.90
2018-04-18T07:08:40.549Z,49.20
2018-04-18T07:09:15.967Z,44.60
2018-04-18T07:09:51.193Z,51.00
2018-04-18T07:10:26.609Z,54.30
2018-04-18T07:11:05.095Z,55.30
2018-04-18T07:11:40.572Z,52.10
2018-04-18T07:12:18.091Z,43.00
2018-04-18T07:12:53.453Z,45.30
2018-04-18T07:13:30.285Z,50.10
2018-04-18T07:14:05.779Z,47.10
2018-04-18T07:14:40.882Z,47.50
2018-04-18T07:15:16.190Z,52.80
2018-04-18T07:15:53.977Z,54.40
2018-04-18T07:16:30.402Z,51.00
2018-04-18T07:17:05.723Z,51.30
2018-04-18T07:17:42.020Z,48.00
2018-04-18T07:18:17.543Z,46.10
2018-04-18T07:18:53.053Z,45.10
2018-04-18T07:19:28.467Z,48.20
2018-04-18T07:20:03.897Z,48.00
2018-04-18T07:20:41.488Z,44.90
2018-04-18T07:21:17.094Z,43.90
2018-04-18T07:21:52.306Z,43.60
2018-04-18T07:22:27.843Z,40.90
2018-04-18T07:23:04.225Z,40.10
2018-04-18T07:23:42.224Z,47.30
2018-04-18T07:24:17.678Z,46.00
2018-04-18T07:24:52.867Z,45.00
2018-04-18T07:25:31.375Z,46.60
2018-04-18T07:26:06.659Z,48.40
2018-04-18T07:26:42.204Z,46.00
2018-04-18T07:27:17.344Z,41.40
2018-04-18T07:27:52.449Z,40.30
2018-04-18T07:28:27.678Z,41.60
2018-04-18T07:29:03.179Z,42.60
2018-04-18T07:29:39.107Z,44.60
2018-04-18T07:30:14.315Z,48.90
2018-04-18T07:30:49.889Z,48.50
2018-04-18T07:31:25.417Z,43.40
2018-04-18T07:32:01.008Z,40.60
2018-04-18T07:32:36.263Z,44.80
2018-04-18T07:33:11.756Z,42.60
2018-04-18T07:33:47.201Z,42.30
2018-04-18T07:34:22.445Z,42.60
2018-04-18T07:34:57.513Z,44.20
2018-04-18T07:35:32.824Z,42.70
2018-04-18T07:36:09.026Z,40.70
2018-04-18T07:36:44.572Z,42.70
2018-04-18T07:37:20.288Z,39.40
2018-04-18T07:37:56.627Z,38.20
2018-04-18T07:38:32.680Z,40.10
2018-04-18T07:39:07.876Z,39.40
2018-04-18T07:39:43.272Z,40.20
2018-04-18T07:40:18.469Z,38.70
2018-04-18T07:40:53.970Z,41.10
2018-04-18T07:41:29.629Z,39.80
2018-04-18T07:42:05.021Z,39.60
2018-04-18T07:42:42.431Z,38.30
2018-04-18T07:43:18.069Z,37.70
2018-04-18T07:43:55.055Z,41.60
2018-04-18T07:44:30.397Z,47.30